Boley, Oklahoma
Current Conditions -  °F | °C
As of 6:55 AM on Friday 19 Dec 2014 (Local Time) from KCQB Reporting Station
Haze Haze  
Wind Chill: 39°   Ceiling: 200
Heat Index: 39°   Visibility: 3mi
Dew Point: 39°   Wind: 3mph
Humidity: 100%   Direction: 40°NE
Pressure: 30.25"   Gusts: NA
Location:  35.49°N, 96.48°W
Report Text: KCQB 191255Z AUTO 04003KT 3SM BR OVC002 04/04 A3025 RMK AO2
Loading
Personal Weather Stations






























Interactive Weather Map New forecast layout! Learn more

10-Day Weather Forecast

Advertisements
Track Severe Weather on mobile